Flight Track Log - Related Links

Times and Time Zones

All times are in EDT time to prevent confusion due to time zone crossing. See the UAL1254 flight status page for this flight to view local times or setup timezone preferences in your user account.


Time Position Orientation Groundspeed Altitude Reporting Facility
EDT Latitude Longitude Course Direction KTS MPH feet Rate Location/Type
Mon 02:39:57 PM 42.0040 -87.9470 321° Northwest 186 214 1,700  Level FlightAware ADS-B
Mon 02:40:26 PM 42.0240 -87.9690 321° Northwest 206 237 2,400 1,393 Climbing FlightAware ADS-B
Mon 02:40:53 PM 42.0470 -87.9950 320° Northwest 239 275 3,000 2,073 Climbing FlightAware ADS-B
Mon 02:41:21 PM 42.0710 -88.0210 321° Northwest 244 281 4,300 2,316 Climbing FlightAware ADS-B
Mon 02:41:50 PM 42.0970 -88.0470 323° Northwest 265 305 5,200 2,423 Climbing FlightAware ADS-B
Mon 02:42:13 PM 42.1240 -88.0640 335° Northwest 269 310 6,400 2,943 Climbing FlightAware ADS-B
Mon 02:42:43 PM 42.1630 -88.0610 North 278 320 7,800 2,679 Climbing FlightAware ADS-B
Mon 02:43:09 PM 42.1970 -88.0590 North 282 325 8,900 2,357 Climbing FlightAware ADS-B
Mon 02:44:07 PM 42.2760 -88.0590 360° North 298 343 11,100 2,280 Climbing FlightAware ADS-B
Mon 02:44:49 PM 42.3330 -88.0620 358° North 303 349 12,700 2,233 Climbing FlightAware ADS-B
Mon 02:45:33 PM 42.3960 -88.0670 357° North 313 360 14,300 2,122 Climbing FlightAware ADS-B
Mon 02:46:11 PM 42.4510 -88.0700 358° North 320 368 15,600 1,929 Climbing FlightAware ADS-B
Mon 02:46:57 PM 42.5220 -88.0740 358° North 332 382 17,000 1,705 Climbing FlightAware ADS-B
Mon 02:47:39 PM 42.5870 -88.0780 357° North 340 391 18,100 1,714 Climbing FlightAware ADS-B
Mon 02:48:21 PM 42.6540 -88.0810 358° North 345 397 19,400 1,814 Climbing FlightAware ADS-B
Mon 02:49:05 PM 42.7250 -88.0860 357° North 350 403 20,700 1,725 Climbing FlightAware ADS-B
Mon 02:49:41 PM 42.7840 -88.0900 357° North 354 407 21,700 1,390 Climbing FlightAware ADS-B
Mon 02:50:27 PM 42.8590 -88.0940 358° North 365 420 22,600 886 Climbing FlightAware ADS-B
Mon 02:51:09 PM 42.9350 -88.0980 358° North 392 451 23,000 538 Climbing FlightAware ADS-B
Mon 02:51:45 PM 43.0010 -88.1020 357° North 413 475 23,300 585 Climbing FlightAware ADS-B
Mon 02:52:31 PM 43.0910 -88.1070 358° North 436 502 23,800 886 Climbing FlightAware ADS-B
Mon 02:53:13 PM 43.1770 -88.1120 358° North 444 511 24,600 1,103 Climbing FlightAware ADS-B
Mon 02:53:58 PM 43.2700 -88.1180 357° North 452 520 25,400 1,159 Climbing FlightAware ADS-B
Mon 02:54:41 PM 43.3630 -88.1230 358° North 456 525 26,300 1,760 Climbing FlightAware ADS-B
Mon 02:55:13 PM 43.4260 -88.1270 357° North 439 505 27,600 1,704 Climbing FlightAware ADS-B
Mon 02:56:02 PM 43.5260 -88.1330 358° North 438 504 28,600 800 Climbing FlightAware ADS-B
Mon 02:56:43 PM 43.6100 -88.1380 358° North 454 522 28,800 353 Climbing FlightAware ADS-B
Mon 02:57:27 PM 43.7050 -88.1440 357° North 467 537 29,100 571 Climbing FlightAware ADS-B
Mon 02:58:07 PM 43.7910 -88.1490 358° North 472 543 29,600 900 Climbing FlightAware ADS-B
Mon 02:58:47 PM 43.8780 -88.1540 358° North 471 542 30,300 1,091 Climbing FlightAware ADS-B
Mon 02:59:35 PM 43.9810 -88.1600 358° North 468 539 31,200 815 Climbing FlightAware ADS-B
Mon 03:00:08 PM 44.0470 -88.1650 357° North 467 537 31,400 585 Climbing FlightAware ADS-B
Mon 03:00:57 PM 44.1580 -88.1700 358° North 464 534 32,000 298 Climbing FlightAware ADS-B
Mon 03:02:09 PM 44.3120 -88.1790 358° North 462 532 32,000  Level FlightAware ADS-B
Mon 03:02:46 PM 44.3930 -88.1850 357° North 463 533 32,000  Level FlightAware ADS-B
Mon 03:03:28 PM 44.4840 -88.1940 356° North 462 532 32,000  Level FlightAware ADS-B
Mon 03:04:43 PM 44.5920 -88.3120 322° Northwest 434 499 32,000  Level FlightAware ADS-B
Mon 03:04:53 PM 44.5790 -88.3660 251° West 416 479 32,000  Level FlightAware ADS-B
Mon 03:05:37 PM 44.5950 -88.4830 281° West 418 481 32,000  Level FlightAware ADS-B
Mon 03:06:26 PM 44.6120 -88.6070 281° West 420 483 32,000  Level FlightAware ADS-B
Mon 03:07:11 PM 44.6290 -88.7350 281° West 420 483 32,000  Level FlightAware ADS-B
Mon 03:08:00 PM 44.6430 -88.8470 280° West 420 483 32,000  Level FlightAware ADS-B
Mon 03:08:53 PM 44.6620 -88.9880 281° West 417 480 32,000  Level FlightAware ADS-B
Mon 03:09:37 PM 44.6810 -89.1240 281° West 416 479 32,000  Level FlightAware ADS-B
Mon 03:10:15 PM 44.6930 -89.2210 280° West 415 478 32,000  Level FlightAware ADS-B
Mon 03:10:57 PM 44.7080 -89.3310 281° West 414 476 32,000  Level FlightAware ADS-B
Mon 03:11:57 PM 44.7240 -89.4640 280° West 413 475 32,000  Level FlightAware ADS-B
Mon 03:12:41 PM 44.7420 -89.5990 281° West 412 474 32,000  Level FlightAware ADS-B
Mon 03:13:20 PM 44.7560 -89.7110 280° West 409 471 32,000 -282 Level FlightAware ADS-B
Mon 03:14:06 PM 44.7710 -89.8320 280° West 413 475 31,600 -759 Descending FlightAware ADS-B
Mon 03:14:39 PM 44.7810 -89.9150 280° West 412 474 31,000 -419 Descending FlightAware ADS-B
Mon 03:15:32 PM 44.7950 -90.0340 279° West 412 474 31,000  Level FlightAware ADS-B
Mon 03:16:11 PM 44.8050 -90.1220 279° West 412 474 31,000  Level FlightAware ADS-B
Mon 03:16:46 PM 44.8140 -90.2010 279° West 412 474 31,000 -714 Level FlightAware ADS-B
Mon 03:17:35 PM 44.8390 -90.3850 281° West 413 475 30,000 -674 Descending FlightAware ADS-B
Mon 03:18:15 PM 44.8510 -90.4890 279° West 413 475 30,000  Level FlightAware ADS-B
Mon 03:19:14 PM 44.8680 -90.6350 279° West 412 474 30,000  Level FlightAware ADS-B
Mon 03:20:10 PM 44.8870 -90.7980 279° West 413 475 30,000  Level FlightAware ADS-B
Mon 03:20:46 PM 44.8980 -90.8910 280° West 413 475 30,000  Level FlightAware ADS-B
Mon 03:21:34 PM 44.9120 -91.0200 279° West 413 475 30,000  Level FlightAware ADS-B
Mon 03:22:14 PM 44.9240 -91.1250 279° West 413 475 30,000  Level FlightAware ADS-B
Mon 03:22:54 PM 44.9360 -91.2340 279° West 415 478 30,000  Level FlightAware ADS-B
Mon 03:23:39 PM 44.9500 -91.3540 279° West 416 479 30,000  Level FlightAware ADS-B
Mon 03:24:21 PM 44.9620 -91.4650 279° West 421 484 30,000  Level FlightAware ADS-B
Mon 03:25:02 PM 44.9740 -91.5730 279° West 425 489 30,000  Level FlightAware ADS-B
Mon 03:25:37 PM 44.9840 -91.6740 278° West 425 489 30,000  Level FlightAware ADS-B
Mon 03:26:21 PM 44.9970 -91.7920 279° West 426 490 30,000  Level FlightAware ADS-B
Mon 03:27:07 PM 45.0110 -91.9240 279° West 427 491 30,000  Level FlightAware ADS-B
Mon 03:28:03 PM 45.0250 -92.0620 278° West 428 493 30,000  Level FlightAware ADS-B
Mon 03:28:43 PM 45.0370 -92.1700 279° West 429 494 30,000  Level FlightAware ADS-B
Mon 03:28:57 PM 45.0520 -92.2240 291° West 436 502 30,000  Level FlightAware ADS-B
Mon 03:29:41 PM 45.0970 -92.3340 300° West 437 503 30,000  Level FlightAware ADS-B
Mon 03:30:23 PM 45.1380 -92.4340 300° West 433 498 30,000  Level FlightAware ADS-B
Mon 03:31:05 PM 45.1800 -92.5380 300° West 433 498 30,000  Level FlightAware ADS-B
Mon 03:31:47 PM 45.2220 -92.6430 300° West 434 499 30,000  Level FlightAware ADS-B
Mon 03:32:33 PM 45.2610 -92.7460 298° West 434 499 30,000  Level FlightAware ADS-B
Mon 03:33:09 PM 45.3010 -92.8480 299° West 441 507 30,000  Level FlightAware ADS-B
Mon 03:33:53 PM 45.3460 -92.9600 300° West 441 507 30,000  Level FlightAware ADS-B
Mon 03:34:35 PM 45.3880 -93.0640 300° West 442 509 30,000  Level FlightAware ADS-B
Mon 03:35:29 PM 45.4240 -93.2090 290° West 435 501 30,000  Level FlightAware ADS-B
Mon 03:36:09 PM 45.4290 -93.3120 274° West 434 499 30,000  Level FlightAware ADS-B
Mon 03:36:58 PM 45.4330 -93.4310 273° West 434 499 30,000  Level FlightAware ADS-B
Mon 03:37:33 PM 45.4360 -93.5160 273° West 434 499 30,000  Level FlightAware ADS-B
Mon 03:38:20 PM 45.4400 -93.6300 273° West 434 499 30,000  Level FlightAware ADS-B
Mon 03:38:57 PM 45.4440 -93.7200 274° West 434 499 30,000  Level FlightAware ADS-B
Mon 03:39:47 PM 45.4480 -93.8410 273° West 434 499 30,000  Level FlightAware ADS-B
Mon 03:40:23 PM 45.4510 -93.9290 273° West 434 499 30,000  Level FlightAware ADS-B
Mon 03:41:09 PM 45.4550 -94.0410 273° West 434 499 30,000  Level FlightAware ADS-B
Mon 03:41:45 PM 45.4590 -94.1280 274° West 434 499 30,000  Level FlightAware ADS-B
Mon 03:42:35 PM 45.4630 -94.2490 273° West 434 499 30,000  Level FlightAware ADS-B
Mon 03:43:12 PM 45.4660 -94.3390 273° West 434 499 30,000  Level FlightAware ADS-B
Mon 03:43:49 PM 45.4700 -94.4290 274° West 434 499 30,000  Level FlightAware ADS-B
Mon 03:44:36 PM 45.4740 -94.5440 273° West 434 499 30,000  Level FlightAware ADS-B
Mon 03:45:22 PM 45.4780 -94.6550 273° West 434 499 30,000  Level FlightAware ADS-B
Mon 03:46:17 PM 45.4492 -95.0003 273° West 418 481 30,000  Level Minneapolis Center
Mon 03:47:19 PM 45.4494 -95.1536 270° West 416 479 30,000  Level Minneapolis Center
Mon 03:48:21 PM 45.4500 -95.3211 270° West 423 487 30,000  Level Minneapolis Center
Mon 03:50:24 PM 45.4500 -95.6872 270° West 425 489 30,000  Level Minneapolis Center
Mon 03:51:26 PM 45.4514 -95.8558 271° West 427 491 30,000  Level Minneapolis Center
Mon 03:52:28 PM 45.4508 -96.0242 270° West 427 491 30,000 -49 Level Minneapolis Center
Mon 03:53:29 PM 45.4497 -96.1928 270° West 427 491 29,900 -537 Descending Minneapolis Center
Mon 03:54:31 PM 45.4486 -96.3606 270° West 426 490 28,900 -919 Descending Minneapolis Center
Mon 03:55:33 PM 45.4478 -96.5297 270° West 428 493 28,000 -435 Descending Minneapolis Center
Mon 03:56:35 PM 45.4381 -96.7344 266° West 433 498 28,000  Level Minneapolis Center
Mon 03:57:36 PM 45.4147 -96.9006 259° West 432 497 28,000  Level Minneapolis Center
Mon 03:58:38 PM 45.3922 -97.0650 259° West 428 493 28,000  Level Minneapolis Center
Mon 03:59:40 PM 45.3694 -97.2311 259° West 429 494 28,000  Level Minneapolis Center
Mon 04:00:42 PM 45.3467 -97.3978 259° West 431 496 28,000  Level Minneapolis Center
Mon 04:01:43 PM 45.3242 -97.5636 259° West 431 496 28,000  Level Minneapolis Center
Mon 04:02:45 PM 45.2961 -97.7644 259° West 433 498 28,000  Level Minneapolis Center
Mon 04:03:47 PM 45.2725 -97.9308 259° West 433 498 28,000  Level Minneapolis Center
Mon 04:04:49 PM 45.2497 -98.0847 258° West 431 496 28,000  Level Minneapolis Center
Mon 04:05:50 PM 45.2258 -98.2500 258° West 429 494 28,000  Level Minneapolis Center
Mon 04:06:52 PM 45.2017 -98.4150 258° West 428 493 28,000  Level Minneapolis Center
Mon 04:07:54 PM 45.1728 -98.6106 258° West 425 489 28,000  Level Minneapolis Center
Mon 04:08:56 PM 45.1475 -98.7742 258° West 424 488 28,000  Level Minneapolis Center
Mon 04:09:57 PM 45.1233 -98.9375 258° West 425 489 28,000  Level Minneapolis Center
Mon 04:11:11 PM 45.0931 -99.1336 258° West 425 489 28,000  Level Minneapolis Center
Mon 04:12:13 PM 45.0672 -99.2975 257° West 426 490 28,000  Level Minneapolis Center
Mon 04:13:15 PM 45.0408 -99.4614 257° West 427 491 28,000  Level Minneapolis Center
Mon 04:14:17 PM 45.0150 -99.6247 257° West 425 489 28,000  Level Minneapolis Center
Mon 04:15:19 PM 44.9825 -99.8225 257° West 425 489 28,000  Level Minneapolis Center
Mon 04:16:21 PM 44.9592 -99.9589 256° West 427 491 28,000 97 Level Minneapolis Center
Mon 04:17:23 PM 44.9283 -100.1592 258° West 426 490 28,200 871 Climbing Minneapolis Center
Mon 04:18:25 PM 44.9011 -100.3256 257° West 430 495 29,800 1,548 Climbing Minneapolis Center
Mon 04:19:27 PM 44.8750 -100.4853 257° West 423 487 31,400 1,306 Climbing Minneapolis Center
Mon 04:20:29 PM 44.8478 -100.6433 256° West 418 481 32,500 1,065 Climbing Minneapolis Center
Mon 04:21:31 PM 44.8208 -100.8017 257° West 415 478 33,600 726 Climbing Minneapolis Center
Mon 04:22:33 PM 44.7942 -100.9592 257° West 415 478 34,000 176 Climbing Minneapolis Center
Mon 04:23:47 PM 44.7611 -101.1472 256° West 414 476 34,000  Level Minneapolis Center
Mon 04:24:49 PM 44.7286 -101.3367 256° West 414 476 34,000  Level Minneapolis Center
Mon 04:25:51 PM 44.7025 -101.4919 257° West 412 474 34,000  Level Minneapolis Center
Mon 04:26:53 PM 44.6747 -101.6494 256° West 412 474 34,000  Level Minneapolis Center
Mon 04:27:55 PM 44.6458 -101.8067 256° West 417 480 34,000  Level Minneapolis Center
Mon 04:28:58 PM 44.6164 -101.9617 255° West 414 476 34,000  Level Denver Center
Mon 04:30:00 PM 44.5881 -102.1186 256° West 414 476 34,000  Level Denver Center
Mon 04:31:01 PM 44.5542 -102.3075 256° West 417 480 34,000  Level Denver Center
Mon 04:32:03 PM 44.5244 -102.4625 255° West 413 475 34,000  Level Denver Center
Mon 04:33:04 PM 44.4953 -102.6208 256° West 418 481 34,000  Level Denver Center
Mon 04:34:18 PM 44.4653 -102.7775 255° West 417 480 34,000  Level Denver Center
Mon 04:35:20 PM 44.4300 -102.9664 255° West 419 482 34,000  Level Denver Center
Mon 04:36:21 PM 44.4039 -103.1231 257° West 415 478 34,000  Level Denver Center
Mon 04:37:23 PM 44.3883 -103.2950 263° West 414 476 34,000  Level Denver Center
Mon 04:39:26 PM 44.3533 -103.6253 262° West 416 479 34,000  Level Denver Center
Mon 04:40:28 PM 44.3378 -103.7769 262° West 416 479 34,000  Level Denver Center
Mon 04:41:30 PM 44.3183 -103.9519 261° West 412 474 34,000  Level Denver Center
Mon 04:42:32 PM 44.2922 -104.0983 256° West 409 471 34,000  Level Denver Center
Mon 04:43:33 PM 44.2558 -104.2672 253° West 409 471 34,000  Level Denver Center
Mon 04:44:35 PM 44.2258 -104.4156 254° West 411 473 34,000  Level Denver Center
Mon 04:45:37 PM 44.1892 -104.5839 253° West 411 473 34,000  Level Denver Center
Mon 04:46:38 PM 44.1592 -104.7272 254° West 407 468 34,000  Level Denver Center
Mon 04:47:40 PM 44.1219 -104.8953 253° West 407 468 34,000  Level Denver Center
Mon 04:48:42 PM 44.0903 -105.0414 253° West 409 471 34,000  Level Denver Center
Mon 04:49:43 PM 44.0542 -105.2097 253° West 410 472 34,000  Level Denver Center
Mon 04:50:45 PM 44.0222 -105.3508 253° West 408 470 34,000 242 Level Denver Center
Mon 04:51:47 PM 43.9911 -105.4939 253° West 406 467 34,500 823 Climbing Denver Center
Mon 04:52:49 PM 43.9531 -105.6603 252° West 406 467 35,700 732 Climbing Denver Center
Mon 04:53:50 PM 43.9217 -105.8028 253° West 406 467 36,000 146 Climbing Denver Center
Mon 04:54:52 PM 43.8842 -105.9669 252° West 404 465 36,000  Level Denver Center
Mon 04:55:54 PM 43.8525 -106.1072 253° West 402 463 36,000  Level Denver Center
Mon 04:56:56 PM 43.8147 -106.2697 252° West 399 459 36,000  Level Denver Center
Mon 04:57:58 PM 43.7828 -106.4072 252° West 395 455 36,000  Level Denver Center
Mon 04:58:59 PM 43.7458 -106.5692 253° West 397 457 36,000  Level Denver Center
Mon 05:00:01 PM 43.7122 -106.7075 251° West 398 458 36,000  Level Denver Center
Mon 05:01:03 PM 43.6733 -106.8708 252° West 402 463 36,000  Level Denver Center
Mon 05:01:55 PM 43.6475 -106.9875 253° West 399 459 36,000  Level Salt Lake Center
Mon 05:02:57 PM 43.6086 -107.1478 252° West 396 456 36,000  Level Salt Lake Center
Mon 05:03:59 PM 43.5764 -107.2856 252° West 396 456 36,000  Level Salt Lake Center
Mon 05:05:00 PM 43.5400 -107.4336 251° West 394 453 36,000  Level Salt Lake Center
Mon 05:06:02 PM 43.5064 -107.5689 251° West 392 451 36,000  Level Salt Lake Center
Mon 05:07:04 PM 43.4692 -107.7256 252° West 387 445 36,000  Level Salt Lake Center
Mon 05:08:05 PM 43.4342 -107.8600 250° West 390 449 36,000  Level Salt Lake Center
Mon 05:09:07 PM 43.3958 -108.0175 252° West 390 449 36,000  Level Salt Lake Center
Mon 05:10:09 PM 43.3619 -108.1508 251° West 389 448 36,000  Level Salt Lake Center
Mon 05:11:10 PM 43.3239 -108.3058 251° West 386 444 36,000  Level Salt Lake Center
Mon 05:12:12 PM 43.2897 -108.4381 250° West 385 443 36,000  Level Salt Lake Center
Mon 05:13:14 PM 43.2569 -108.5669 251° West 378 435 36,000  Level Salt Lake Center
Mon 05:14:15 PM 43.2178 -108.7161 250° West 374 430 36,000  Level Salt Lake Center
Mon 05:15:17 PM 43.1850 -108.8436 251° West 371 427 36,000  Level Salt Lake Center
Mon 05:16:19 PM 43.1478 -108.9900 251° West 368 423 36,000  Level Salt Lake Center
Mon 05:17:21 PM 43.1136 -109.1164 250° West 369 425 36,000  Level Salt Lake Center
Mon 05:18:22 PM 43.0747 -109.2656 250° West 373 429 36,000  Level Salt Lake Center
Mon 05:19:24 PM 43.0414 -109.3917 250° West 371 427 36,000  Level Salt Lake Center
Mon 05:20:26 PM 43.0022 -109.5411 250° West 373 429 36,000  Level Salt Lake Center
Mon 05:21:28 PM 42.9681 -109.6678 250° West 372 428 36,000  Level Salt Lake Center
Mon 05:22:29 PM 42.9339 -109.7956 250° West 375 432 36,000  Level Salt Lake Center
Mon 05:23:31 PM 42.8900 -109.9547 249° West 378 435 36,000  Level Salt Lake Center
Mon 05:24:33 PM 42.8558 -110.0822 250° West 374 430 36,000  Level Salt Lake Center
Mon 05:25:35 PM 42.8208 -110.2117 250° West 378 435 36,000  Level Salt Lake Center
Mon 05:26:37 PM 42.7786 -110.3631 249° West 382 440 36,000  Level Salt Lake Center
Mon 05:27:39 PM 42.7439 -110.4933 250° West 383 441 36,000  Level Salt Lake Center
Mon 05:28:41 PM 42.7036 -110.6350 249° West 387 445 36,000  Level Salt Lake Center
Mon 05:34:55 PM 42.4584 -111.5000 249° West 385 443 36,000  Level FlightAware ADS-B
Mon 05:35:26 PM 42.4389 -111.5680 249° West 383 441 36,000  Level FlightAware ADS-B
Mon 05:36:18 PM 42.4054 -111.6840 249° West 383 441 36,000  Level FlightAware ADS-B
Mon 05:36:48 PM 42.3860 -111.7510 249° West 377 434 36,000  Level FlightAware ADS-B
Mon 05:37:31 PM 42.3585 -111.8450 248° West 376 433 36,000  Level FlightAware ADS-B
Mon 05:38:02 PM 42.3392 -111.9120 249° West 376 433 36,000  Level FlightAware ADS-B
Mon 05:38:32 PM 42.3195 -111.9790 248° West 377 434 36,000  Level FlightAware ADS-B
Mon 05:39:51 PM 42.2693 -112.1490 248° West 377 434 36,000  Level FlightAware ADS-B
Mon 05:40:49 PM 42.2316 -112.2770 248° West 377 434 36,000  Level FlightAware ADS-B
Mon 05:41:55 PM 42.1879 -112.4230 248° West 382 440 36,000  Level FlightAware ADS-B
Mon 05:44:49 PM 42.0719 -112.8090 248° West 385 443 36,000  Level FlightAware ADS-B
Mon 05:45:35 PM 42.0415 -112.9090 248° West 385 443 36,000  Level FlightAware ADS-B
Mon 05:46:18 PM 42.0122 -113.0050 248° West 385 443 36,000  Level FlightAware ADS-B
Mon 05:46:50 PM 41.9906 -113.0760 248° West 386 444 36,000  Level FlightAware ADS-B
Mon 05:47:57 PM 41.9448 -113.2250 248° West 387 445 36,000  Level FlightAware ADS-B
Mon 05:48:29 PM 41.9231 -113.2950 247° West 387 445 36,000  Level FlightAware ADS-B
Mon 05:49:07 PM 41.8967 -113.3810 248° West 390 449 36,000 -935 Level FlightAware ADS-B
Mon 05:49:46 PM 41.8696 -113.4680 247° West 390 449 34,800 -2,214 Descending FlightAware ADS-B
Mon 05:50:31 PM 41.8385 -113.5680 247° West 390 449 32,900 -2,649 Descending FlightAware ADS-B
Mon 05:51:03 PM 41.8162 -113.6400 247° West 393 452 31,400 -2,667 Descending FlightAware ADS-B
Mon 05:51:34 PM 41.7946 -113.7090 247° West 401 461 30,100 -1,377 Descending FlightAware ADS-B
Mon 05:52:04 PM 41.7724 -113.7790 247° West 407 468 30,000 -100 Descending FlightAware ADS-B
Mon 05:52:34 PM 41.7506 -113.8490 247° West 407 468 30,000  Level FlightAware ADS-B
Mon 05:53:17 PM 41.7187 -113.9490 247° West 410 472 30,000  Level FlightAware ADS-B
Mon 05:54:25 PM 41.6690 -114.1060 247° West 412 474 30,000  Level FlightAware ADS-B
Mon 05:54:58 PM 41.6445 -114.1830 247° West 410 472 30,000  Level FlightAware ADS-B
Mon 05:55:30 PM 41.6207 -114.2580 247° West 408 470 30,000  Level FlightAware ADS-B
Mon 05:56:02 PM 41.5971 -114.3310 247° West 407 468 30,000  Level FlightAware ADS-B
Mon 05:56:32 PM 41.5746 -114.4010 247° West 405 466 30,000  Level FlightAware ADS-B
Mon 05:57:03 PM 41.5520 -114.4710 247° West 405 466 30,000  Level FlightAware ADS-B
Mon 05:57:33 PM 41.5297 -114.5400 247° West 406 467 30,000  Level FlightAware ADS-B
Mon 05:58:03 PM 41.5072 -114.6100 247° West 407 468 30,000  Level FlightAware ADS-B
Mon 05:58:33 PM 41.4847 -114.6790 246° West 406 467 30,000  Level FlightAware ADS-B
Mon 05:59:37 PM 41.4442 -114.8056 246° West 405 466 30,000  Level Oakland Center
Mon 06:00:40 PM 41.3919 -114.9572 245° Southwest 405 466 30,000  Level Salt Lake Center
Mon 06:01:42 PM 41.3494 -115.0900 247° West 406 467 30,000  Level Salt Lake Center
Mon 06:02:44 PM 41.2981 -115.2431 246° West 405 466 30,000  Level Salt Lake Center
Mon 06:03:46 PM 41.2547 -115.3750 246° West 407 468 30,000  Level Salt Lake Center
Mon 06:04:48 PM 41.2039 -115.5283 246° West 406 467 30,000  Level Salt Lake Center
Mon 06:05:49 PM 41.1597 -115.6597 246° West 407 468 30,000  Level Salt Lake Center
Mon 06:06:52 PM 41.1164 -115.7897 246° West 404 465 30,000  Level Salt Lake Center
Mon 06:07:53 PM 41.0647 -115.9411 246° West 404 465 30,000  Level Salt Lake Center
Mon 06:08:57 PM 41.0222 -116.0703 246° West 402 463 30,000  Level Salt Lake Center
Mon 06:09:57 PM 40.9694 -116.2211 245° Southwest 403 464 30,000  Level Salt Lake Center
Mon 06:10:58 PM 40.9256 -116.3514 246° West 406 467 30,000  Level Salt Lake Center
Mon 06:12:00 PM 40.8736 -116.5011 245° Southwest 403 464 30,000  Level Salt Lake Center
Mon 06:13:02 PM 40.8275 -116.6292 245° Southwest 405 466 30,000  Level Salt Lake Center
Mon 06:14:04 PM 40.7772 -116.7783 246° West 401 461 30,000  Level Salt Lake Center
Mon 06:15:06 PM 40.7314 -116.9056 245° Southwest 403 464 30,000  Level Salt Lake Center
Mon 06:16:07 PM 40.6797 -117.0542 245° Southwest 403 464 30,000  Level Salt Lake Center
Mon 06:17:09 PM 40.6339 -117.1808 245° Southwest 403 464 30,000  Level Salt Lake Center
Mon 06:18:11 PM 40.5811 -117.3303 245° Southwest 406 467 30,000  Level Salt Lake Center
Mon 06:19:13 PM 40.5358 -117.4586 245° Southwest 406 467 30,000 414 Level Salt Lake Center
Mon 06:25:11 PM 40.2600 -118.2840 245° Southwest 397 457 32,900 570 Climbing FlightAware ADS-B
Mon 06:25:53 PM 40.2320 -118.3770 249° West 393 452 33,800 1,143 Climbing FlightAware ADS-B
Mon 06:26:35 PM 40.2040 -118.4710 249° West 396 456 34,500 1,214 Climbing FlightAware ADS-B
Mon 06:27:17 PM 40.1760 -118.5640 249° West 390 449 35,500 1,047 Climbing FlightAware ADS-B
Mon 06:28:01 PM 40.1480 -118.6590 249° West 375 432 36,000 357 Climbing FlightAware ADS-B
Mon 06:28:41 PM 40.1230 -118.7430 249° West 379 436 36,000  Level FlightAware ADS-B
Mon 06:29:25 PM 40.0950 -118.8360 249° West 374 430 36,000  Level FlightAware ADS-B
Mon 06:30:05 PM 40.0690 -118.9200 248° West 375 432 36,000  Level FlightAware ADS-B
Mon 06:30:45 PM 40.0440 -119.0030 249° West 373 429 36,000  Level FlightAware ADS-B
Mon 06:31:29 PM 40.0150 -119.0960 248° West 369 425 36,000  Level FlightAware ADS-B
Mon 06:32:09 PM 39.9910 -119.1780 249° West 367 422 36,000  Level FlightAware ADS-B
Mon 06:32:53 PM 39.9630 -119.2670 248° West 366 421 36,000  Level FlightAware ADS-B
Mon 06:33:33 PM 39.9380 -119.3500 249° West 363 418 36,000  Level FlightAware ADS-B
Mon 06:34:17 PM 39.9100 -119.4380 247° West 361 415 36,000  Level FlightAware ADS-B
Mon 06:34:59 PM 39.8840 -119.5220 248° West 357 411 36,000  Level FlightAware ADS-B
Mon 06:35:43 PM 39.8570 -119.6090 248° West 357 411 36,000  Level FlightAware ADS-B
Mon 06:36:24 PM 39.8320 -119.6900 248° West 354 407 36,000  Level FlightAware ADS-B
Mon 06:37:03 PM 39.8080 -119.7660 248° West 354 407 36,000  Level FlightAware ADS-B
Mon 06:37:49 PM 39.7800 -119.8560 248° West 350 403 36,000  Level FlightAware ADS-B
Mon 06:38:29 PM 39.7550 -119.9360 248° West 349 402 36,000  Level FlightAware ADS-B
Mon 06:39:13 PM 39.7280 -120.0210 248° West 353 406 36,000  Level FlightAware ADS-B
Mon 06:39:53 PM 39.7040 -120.0980 248° West 353 406 36,000  Level FlightAware ADS-B
Mon 06:40:33 PM 39.6790 -120.1780 248° West 354 407 36,000  Level FlightAware ADS-B
Mon 06:41:15 PM 39.6530 -120.2600 248° West 353 406 36,000  Level FlightAware ADS-B
Mon 06:41:57 PM 39.6260 -120.3420 247° West 356 410 36,000  Level FlightAware ADS-B
Mon 06:42:42 PM 39.5980 -120.4290 247° West 356 410 36,000  Level FlightAware ADS-B
Mon 06:43:23 PM 39.5720 -120.5120 248° West 358 412 36,000  Level FlightAware ADS-B
Mon 06:44:05 PM 39.5450 -120.5960 247° West 359 413 36,000  Level FlightAware ADS-B
Mon 06:44:47 PM 39.5180 -120.6780 247° West 360 414 36,000  Level FlightAware ADS-B
Mon 06:45:29 PM 39.4920 -120.7600 248° West 359 413 36,000  Level FlightAware ADS-B
Mon 06:46:13 PM 39.4630 -120.8490 247° West 359 413 36,000  Level FlightAware ADS-B
Mon 06:46:51 PM 39.4380 -120.9250 247° West 359 413 36,000  Level FlightAware ADS-B
Mon 06:47:37 PM 39.4090 -121.0150 247° West 358 412 36,000  Level FlightAware ADS-B
Mon 06:48:17 PM 39.3840 -121.0910 247° West 359 413 36,000  Level FlightAware ADS-B
Mon 06:48:59 PM 39.3520 -121.1750 244° Southwest 367 422 36,000  Level FlightAware ADS-B
Mon 06:49:43 PM 39.3030 -121.2470 229° Southwest 377 434 36,000 -439 Level FlightAware ADS-B
Mon 06:50:21 PM 39.2560 -121.3100 226° Southwest 377 434 35,400 -1,000 Descending FlightAware ADS-B
Mon 06:51:07 PM 39.2010 -121.3860 227° Southwest 381 438 34,600 -977 Descending FlightAware ADS-B
Mon 06:51:47 PM 39.1540 -121.4490 226° Southwest 379 436 34,000 -951 Descending FlightAware ADS-B
Mon 06:52:29 PM 39.1020 -121.5190 226° Southwest 381 438 33,300 -951 Descending FlightAware ADS-B
Mon 06:53:09 PM 39.0520 -121.5860 226° Southwest 384 442 32,700 -929 Descending FlightAware ADS-B
Mon 06:53:53 PM 39.0000 -121.6560 226° Southwest 382 440 32,000 -1,364 Descending FlightAware ADS-B
Mon 06:54:37 PM 38.9460 -121.7290 226° Southwest 386 444 30,700 -1,884 Descending FlightAware ADS-B
Mon 06:55:19 PM 38.8940 -121.7990 226° Southwest 390 449 29,300 -1,976 Descending FlightAware ADS-B
Mon 06:55:59 PM 38.8440 -121.8650 226° Southwest 391 450 28,000 -1,610 Descending FlightAware ADS-B
Mon 06:56:41 PM 38.7910 -121.9350 226° Southwest 378 435 27,100 -1,683 Descending FlightAware ADS-B
Mon 06:57:21 PM 38.7440 -121.9980 226° Southwest 371 427 25,700 -1,929 Descending FlightAware ADS-B
Mon 06:58:05 PM 38.6920 -122.0670 226° Southwest 358 412 24,400 -1,835 Descending FlightAware ADS-B
Mon 06:58:46 PM 38.6470 -122.1270 226° Southwest 350 403 23,100 -2,047 Descending FlightAware ADS-B
Mon 06:59:30 PM 38.5950 -122.1950 226° Southwest 346 398 21,500 -1,969 Descending FlightAware ADS-B
Mon 06:59:50 PM 38.5750 -122.2220 227° Southwest 343 395 21,000 -1,391 Descending FlightAware ADS-B
Mon 07:00:39 PM 38.5220 -122.2910 226° Southwest 340 391 19,900 -1,241 Descending FlightAware ADS-B
Mon 07:01:17 PM 38.4800 -122.3470 226° Southwest 337 388 19,200 -1,000 Descending FlightAware ADS-B
Mon 07:02:03 PM 38.4300 -122.4130 226° Southwest 334 384 18,500 -1,000 Descending FlightAware ADS-B
Mon 07:02:47 PM 38.3710 -122.4580 211° Southwest 342 394 17,700 -1,000 Descending FlightAware ADS-B
Mon 07:03:27 PM 38.3120 -122.4850 200° South 333 383 17,100 -1,000 Descending FlightAware ADS-B
Mon 07:04:11 PM 38.2480 -122.5140 200° South 331 381 16,300 -1,023 Descending FlightAware ADS-B
Mon 07:04:55 PM 38.1840 -122.5430 200° South 330 380 15,600 -1,000 Descending FlightAware ADS-B
Mon 07:05:35 PM 38.1270 -122.5690 200° South 323 372 14,900 -1,390 Descending FlightAware ADS-B
Mon 07:06:17 PM 38.0690 -122.5960 200° South 315 362 13,700 -1,692 Descending FlightAware ADS-B
Mon 07:06:53 PM 38.0210 -122.6180 200° South 311 358 12,700 -1,714 Descending FlightAware ADS-B
Mon 07:07:41 PM 37.9540 -122.6480 199° South 304 350 11,300 -1,244 Descending FlightAware ADS-B
Mon 07:08:15 PM 37.9110 -122.6640 196° South 295 339 11,000 -333 Descending FlightAware ADS-B
Mon 07:08:35 PM 37.8860 -122.6570 168° South 300 345 11,000  Level FlightAware ADS-B
Mon 07:08:51 PM 37.8660 -122.6380 143° Southeast 306 352 11,000  Level FlightAware ADS-B
Mon 07:09:33 PM 37.8210 -122.5890 139° Southeast 304 350 11,000  Level FlightAware ADS-B
Mon 07:10:20 PM 37.7703 -122.5350 140° Southeast 305 351 11,000  Level FlightAware ADS-B
Mon 07:10:55 PM 37.7319 -122.4940 140° Southeast 305 351 11,000  Level FlightAware ADS-B
Mon 07:11:25 PM 37.7001 -122.4600 140° Southeast 289 333 11,000  Level FlightAware ADS-B
Mon 07:11:58 PM 37.6690 -122.4260 139° Southeast 265 305 11,000  Level FlightAware ADS-B
Mon 07:12:29 PM 37.6406 -122.3960 140° Southeast 258 297 11,000  Level FlightAware ADS-B
Mon 07:12:44 PM 37.6269 -122.3830 143° Southeast 256 295 11,000  Level FlightAware ADS-B
Mon 07:13:14 PM 37.5962 -122.3590 148° Southeast 254 292 11,000 -590 Level FlightAware ADS-B
Mon 07:13:45 PM 37.5652 -122.3360 150° Southeast 253 291 10,400 -1,200 Descending FlightAware ADS-B
Mon 07:14:04 PM 37.5454 -122.3220 151° Southeast 252 290 10,000 -1,235 Descending FlightAware ADS-B
Mon 07:14:19 PM 37.5302 -122.3110 150° Southeast 251 289 9,700 -1,200 Descending FlightAware ADS-B
Mon 07:14:34 PM 37.5147 -122.3010 153° Southeast 251 289 9,400 -1,154 Descending FlightAware ADS-B
Mon 07:14:45 PM 37.5036 -122.2930 150° Southeast 250 288 9,200 -889 Descending FlightAware ADS-B
Mon 07:15:01 PM 37.4881 -122.2820 151° Southeast 249 287 9,000 -968 Descending FlightAware ADS-B
Mon 07:15:16 PM 37.4727 -122.2710 150° Southeast 250 288 8,700 -1,200 Descending FlightAware ADS-B
Mon 07:15:31 PM 37.4576 -122.2600 150° Southeast 251 289 8,400 -1,161 Descending FlightAware ADS-B
Mon 07:15:47 PM 37.4416 -122.2490 151° Southeast 250 288 8,100 -1,161 Descending FlightAware ADS-B
Mon 07:16:02 PM 37.4265 -122.2380 150° Southeast 249 287 7,800 -1,200 Descending FlightAware ADS-B
Mon 07:16:12 PM 37.4168 -122.2300 147° Southeast 249 287 7,600 -857 Descending FlightAware ADS-B
Mon 07:16:16 PM 37.4135 -122.2270 144° Southeast 250 288 7,600 -750 Level FlightAware ADS-B
Mon 07:16:20 PM 37.4101 -122.2220 131° Southeast 250 288 7,500 -750 Descending FlightAware ADS-B
Mon 07:16:24 PM 37.4075 -122.2180 129° Southeast 250 288 7,500  Level FlightAware ADS-B
Mon 07:16:27 PM 37.4057 -122.2140 120° Southeast 249 287 7,500 -1,000 Level FlightAware ADS-B
Mon 07:16:30 PM 37.4040 -122.2100 118° Southeast 248 285 7,400 -632 Descending FlightAware ADS-B
Mon 07:16:46 PM 37.3976 -122.1900 112° Southeast 237 273 7,300 -581 Descending FlightAware ADS-B
Mon 07:17:01 PM 37.3915 -122.1710 112° Southeast 229 264 7,100 -923 Descending FlightAware ADS-B
Mon 07:17:12 PM 37.3874 -122.1570 110° East 225 259 6,900 -947 Descending FlightAware ADS-B
Mon 07:17:20 PM 37.3856 -122.1470 103° East 224 258 6,800 -1,000 Descending FlightAware ADS-B
Mon 07:17:24 PM 37.3857 -122.1420 89° East 225 259 6,700 -857 Descending FlightAware ADS-B
Mon 07:17:27 PM 37.3861 -122.1380 83° East 225 259 6,700 -1,000 Level FlightAware ADS-B
Mon 07:17:30 PM 37.3868 -122.1340 78° East 226 260 6,600 -857 Descending FlightAware ADS-B
Mon 07:17:34 PM 37.3883 -122.1290 69° East 226 260 6,600 -750 Level FlightAware ADS-B
Mon 07:17:38 PM 37.3906 -122.1240 60° Northeast 226 260 6,500 -1,500 Descending FlightAware ADS-B
Mon 07:17:42 PM 37.3928 -122.1200 55° Northeast 226 260 6,400 -1,500 Descending FlightAware ADS-B
Mon 07:17:46 PM 37.3958 -122.1160 47° Northeast 224 258 6,300 -947 Descending FlightAware ADS-B
Mon 07:18:01 PM 37.4065 -122.1020 46° Northeast 224 258 6,100 -514 Descending FlightAware ADS-B
Mon 07:18:21 PM 37.4205 -122.0830 47° Northeast 223 257 6,000 -167 Descending FlightAware ADS-B
Mon 07:18:37 PM 37.4321 -122.0680 46° Northeast 223 257 6,000 -414 Level FlightAware ADS-B
Mon 07:18:50 PM 37.4415 -122.0550 48° Northeast 224 258 5,800 -1,263 Descending FlightAware ADS-B
Mon 07:18:56 PM 37.4453 -122.0510 40° Northeast 225 259 5,600 -1,333 Descending FlightAware ADS-B
Mon 07:18:59 PM 37.4477 -122.0480 45° Northeast 225 259 5,600 -1,000 Level FlightAware ADS-B
Mon 07:19:02 PM 37.4502 -122.0460 32° Northeast 224 258 5,500 -2,000 Descending FlightAware ADS-B
Mon 07:19:05 PM 37.4536 -122.0430 35° Northeast 221 254 5,400 -1,500 Descending FlightAware ADS-B
Mon 07:19:10 PM 37.4578 -122.0410 21° North 218 251 5,300 -750 Descending FlightAware ADS-B
Mon 07:19:13 PM 37.4611 -122.0410 360° North 216 249 5,300 -857 Level FlightAware ADS-B
Mon 07:19:17 PM 37.4645 -122.0400 13° North 213 245 5,200 -1,500 Descending FlightAware ADS-B
Mon 07:19:21 PM 37.4682 -122.0410 348° North 209 241 5,100 -1,714 Descending FlightAware ADS-B
Mon 07:19:24 PM 37.4719 -122.0420 348° North 205 236 5,000 -1,714 Descending FlightAware ADS-B
Mon 07:19:28 PM 37.4751 -122.0440 334° Northwest 199 229 4,900 -750 Descending FlightAware ADS-B
Mon 07:19:32 PM 37.4774 -122.0460 325° Northwest 196 226 4,900 -857 Level FlightAware ADS-B
Mon 07:19:35 PM 37.4795 -122.0480 323° Northwest 193 222 4,800 -1,000 Descending FlightAware ADS-B
Mon 07:19:38 PM 37.4816 -122.0510 311° West 192 221 4,800 -857 Level FlightAware ADS-B
Mon 07:19:42 PM 37.4837 -122.0540 311° West 191 220 4,700 -1,800 Descending FlightAware ADS-B
Mon 07:19:48 PM 37.4866 -122.0590 306° West 191 220 4,500 -1,429 Descending FlightAware ADS-B
Mon 07:20:03 PM 37.4940 -122.0740 302° West 196 226 4,200 -1,111 Descending FlightAware ADS-B
Mon 07:20:15 PM 37.4994 -122.0860 300° West 193 222 4,000 -429 Descending FlightAware ADS-B
Mon 07:20:31 PM 37.5058 -122.1010 298° West 185 213 4,000  Level FlightAware ADS-B
Mon 07:20:46 PM 37.5118 -122.1160 297° West 189 217 4,000  Level FlightAware ADS-B
Mon 07:21:01 PM 37.5179 -122.1310 297° West 190 219 4,000 -414 Level FlightAware ADS-B
Mon 07:21:15 PM 37.5234 -122.1440 298° West 190 219 3,800 -923 Descending FlightAware ADS-B
Mon 07:21:27 PM 37.5287 -122.1560 299° West 191 220 3,600 -960 Descending FlightAware ADS-B
Mon 07:21:40 PM 37.5339 -122.1680 299° West 194 223 3,400 -1,071 Descending FlightAware ADS-B
Mon 07:21:55 PM 37.5404 -122.1840 297° West 195 224 3,100 -1,000 Descending FlightAware ADS-B
Mon 07:22:04 PM 37.5444 -122.1930 299° West 195 224 3,000 -960 Descending FlightAware ADS-B
Mon 07:22:20 PM 37.5512 -122.2090 298° West 194 223 2,700 -1,034 Descending FlightAware ADS-B
Mon 07:22:33 PM 37.5564 -122.2210 299° West 194 223 2,500 -1,000 Descending FlightAware ADS-B
Mon 07:22:50 PM 37.5635 -122.2380 298° West 191 220 2,200 -1,200 Descending FlightAware ADS-B
Mon 07:23:03 PM 37.5690 -122.2520 296° West 183 211 1,900 -1,000 Descending FlightAware ADS-B
Mon 07:23:14 PM 37.5730 -122.2610 299° West 176 203 1,800 -889 Descending FlightAware ADS-B
Mon 07:23:30 PM 37.5788 -122.2750 298° West 163 188 1,500 -968 Descending FlightAware ADS-B
Mon 07:23:45 PM 37.5840 -122.2870 299° West 157 181 1,300 -774 Descending FlightAware ADS-B
Mon 07:24:01 PM 37.5896 -122.3000 299° West 154 177 1,100 -882 Descending FlightAware ADS-B
Mon 07:24:19 PM 37.5953 -122.3140 297° West 151 174 800 -909 Descending FlightAware ADS-B
Mon 07:24:34 PM 37.6003 -122.3260 298° West 151 174 600 -643 Descending FlightAware ADS-B
Mon 07:24:47 PM 37.6046 -122.3360 298° West 151 174 500 -857 Descending FlightAware ADS-B
Mon 07:25:02 PM 37.6096 -122.3480 298° West 151 174 200 -1,200 Descending FlightAware ADS-B

Login

Don't have an account? Register now (free) for customized features, flight alerts, and more!